createdAt,value
2023-03-22T00:01:37.367Z,52.50
2023-03-22T00:04:07.899Z,56.50
2023-03-22T00:06:40.985Z,54.25
2023-03-22T00:09:20.983Z,52.50
2023-03-22T00:12:24.263Z,51.50
2023-03-22T00:14:54.951Z,49.75
2023-03-22T00:17:25.937Z,49.50
2023-03-22T00:19:56.520Z,48.00
2023-03-22T00:22:26.683Z,52.00
2023-03-22T00:25:00.937Z,51.75
2023-03-22T00:27:31.920Z,50.25
2023-03-22T00:30:02.936Z,51.75
2023-03-22T00:32:40.616Z,54.50
2023-03-22T00:35:12.109Z,56.50
2023-03-22T00:37:44.004Z,43.75
2023-03-22T00:40:18.522Z,50.50
2023-03-22T00:42:48.939Z,43.75
2023-03-22T00:45:19.666Z,43.75
2023-03-22T00:47:50.147Z,52.25
2023-03-22T00:50:21.424Z,47.00
2023-03-22T00:52:51.774Z,49.00
2023-03-22T00:55:22.491Z,58.25
2023-03-22T00:57:52.866Z,43.00
2023-03-22T01:00:23.160Z,53.50
2023-03-22T01:02:54.238Z,45.25
2023-03-22T01:05:24.560Z,53.25
2023-03-22T01:07:55.193Z,54.75
2023-03-22T01:10:27.030Z,56.75
2023-03-22T01:12:57.522Z,51.50
2023-03-22T01:15:28.013Z,42.50
2023-03-22T01:17:58.857Z,52.75
2023-03-22T01:20:29.926Z,53.25
2023-03-22T01:23:00.551Z,55.00
2023-03-22T01:25:30.779Z,45.25
2023-03-22T01:28:01.011Z,55.75
2023-03-22T01:30:32.548Z,52.25
2023-03-22T01:33:03.859Z,51.00
2023-03-22T01:35:36.175Z,43.00
2023-03-22T01:38:06.982Z,56.50
2023-03-22T01:40:37.643Z,49.75
2023-03-22T01:43:13.724Z,53.75
2023-03-22T01:45:52.316Z,53.00
2023-03-22T01:48:28.452Z,54.75
2023-03-22T01:51:14.590Z,55.00
2023-03-22T01:53:50.998Z,58.50
2023-03-22T01:56:24.422Z,55.50
2023-03-22T01:58:56.384Z,59.75
2023-03-22T02:01:26.875Z,47.75
2023-03-22T02:04:18.520Z,46.50
2023-03-22T02:06:50.745Z,53.25
2023-03-22T02:09:21.446Z,55.25
2023-03-22T02:11:55.232Z,55.00
2023-03-22T02:14:46.759Z,53.75
2023-03-22T02:17:41.290Z,50.75
2023-03-22T02:20:29.530Z,55.50
2023-03-22T02:23:19.669Z,48.75
2023-03-22T02:26:19.745Z,53.50
2023-03-22T02:29:09.070Z,56.50
2023-03-22T02:32:00.358Z,56.75
2023-03-22T02:34:48.524Z,47.50
2023-03-22T02:37:33.838Z,43.50
2023-03-22T02:40:33.467Z,47.25
2023-03-22T02:43:21.340Z,54.00
2023-03-22T02:45:59.318Z,45.50
2023-03-22T02:48:32.692Z,42.75
2023-03-22T02:51:11.463Z,49.25
2023-03-22T02:53:59.485Z,40.50
2023-03-22T02:56:32.601Z,37.25
2023-03-22T02:59:06.475Z,38.00
2023-03-22T03:01:45.894Z,42.00
2023-03-22T03:04:19.359Z,32.00
2023-03-22T03:06:51.771Z,41.25
2023-03-22T03:09:23.779Z,42.75
2023-03-22T03:11:54.461Z,39.75
2023-03-22T03:14:30.125Z,39.25
2023-03-22T03:17:15.433Z,36.25
2023-03-22T03:19:52.417Z,39.50
2023-03-22T03:22:42.290Z,38.50
2023-03-22T03:25:27.579Z,44.75
2023-03-22T03:28:06.497Z,25.25
2023-03-22T03:30:40.341Z,21.00
2023-03-22T03:33:13.785Z,52.50
2023-03-22T03:35:53.883Z,42.75
2023-03-22T03:38:27.301Z,58.00
2023-03-22T03:41:06.056Z,55.50
2023-03-22T03:43:39.439Z,58.75
2023-03-22T03:46:15.627Z,60.25
2023-03-22T03:48:48.867Z,56.25
2023-03-22T03:51:20.560Z,57.50
2023-03-22T03:53:51.016Z,62.25
2023-03-22T03:56:21.287Z,77.50
2023-03-22T03:58:51.993Z,56.25
2023-03-22T04:01:22.285Z,56.25
2023-03-22T04:03:52.691Z,63.25
2023-03-22T04:06:23.184Z,62.50
2023-03-22T04:08:53.670Z,59.00
2023-03-22T04:11:24.738Z,64.00
2023-03-22T04:13:55.768Z,61.75
2023-03-22T04:16:26.123Z,65.25
2023-03-22T04:18:57.876Z,66.25
2023-03-22T04:21:28.876Z,69.75
2023-03-22T04:23:59.517Z,59.25
2023-03-22T04:26:31.160Z,56.75
2023-03-22T04:29:03.510Z,45.00
2023-03-22T04:31:34.572Z,55.50
2023-03-22T04:34:07.833Z,54.75
2023-03-22T04:36:39.082Z,50.25
2023-03-22T04:39:12.045Z,64.25
2023-03-22T04:41:42.370Z,65.00
2023-03-22T04:44:13.653Z,59.50
2023-03-22T04:46:43.873Z,60.50
2023-03-22T04:49:15.407Z,51.50
2023-03-22T04:51:45.864Z,49.00
2023-03-22T04:54:16.238Z,53.75
2023-03-22T04:56:48.376Z,53.00
2023-03-22T04:59:20.029Z,49.25
2023-03-22T05:01:51.405Z,51.25
2023-03-22T05:04:22.725Z,54.75
2023-03-22T05:06:53.398Z,56.50
2023-03-22T05:09:26.433Z,58.75
2023-03-22T05:11:57.969Z,59.25
2023-03-22T05:14:28.843Z,60.25
2023-03-22T05:16:59.595Z,63.00
2023-03-22T05:19:30.098Z,66.50
2023-03-22T05:22:02.017Z,64.00
2023-03-22T05:24:33.302Z,65.75
2023-03-22T05:27:06.656Z,67.75
2023-03-22T05:29:37.875Z,59.50
2023-03-22T05:32:11.849Z,62.50
2023-03-22T05:34:44.592Z,62.00
2023-03-22T05:37:16.088Z,57.00
2023-03-22T05:39:46.363Z,57.75
2023-03-22T05:42:17.006Z,58.75
2023-03-22T05:44:48.842Z,62.75
2023-03-22T05:47:19.451Z,58.25
2023-03-22T05:49:49.776Z,53.75
2023-03-22T05:52:20.715Z,64.50
2023-03-22T05:54:51.047Z,65.75
2023-03-22T05:57:24.474Z,63.25
2023-03-22T05:59:57.028Z,67.50
2023-03-22T06:02:27.905Z,63.00
2023-03-22T06:04:58.724Z,61.25
2023-03-22T06:07:29.416Z,63.25
2023-03-22T06:10:00.365Z,61.25
2023-03-22T06:12:32.324Z,54.75
2023-03-22T06:15:04.059Z,58.25
2023-03-22T06:17:35.825Z,55.75
2023-03-22T06:20:12.259Z,57.50
2023-03-22T06:22:43.443Z,62.00
2023-03-22T06:25:46.412Z,57.00
2023-03-22T06:28:31.999Z,60.75
2023-03-22T06:31:10.430Z,55.00
2023-03-22T06:36:40.619Z,61.50
2023-03-22T06:39:20.891Z,57.75
2023-03-22T06:42:01.816Z,57.00
2023-03-22T06:44:32.546Z,57.50
2023-03-22T06:47:05.230Z,58.25
2023-03-22T06:49:39.181Z,55.50
2023-03-22T06:52:10.903Z,58.75
2023-03-22T06:54:50.548Z,59.00
2023-03-22T06:57:25.166Z,62.50
2023-03-22T06:59:55.950Z,47.75
2023-03-22T07:02:32.317Z,127.75
2023-03-22T07:05:03.073Z,70.25
2023-03-22T07:07:35.924Z,58.75
2023-03-22T07:10:07.505Z,62.75
2023-03-22T07:12:38.470Z,61.50
2023-03-22T07:15:09.465Z,57.75
2023-03-22T07:17:40.368Z,68.75
2023-03-22T07:20:11.507Z,63.75
2023-03-22T07:22:42.199Z,65.50
2023-03-22T07:25:13.775Z,67.00
2023-03-22T07:27:44.966Z,77.75
2023-03-22T07:30:16.880Z,74.75
2023-03-22T07:32:48.396Z,72.50
2023-03-22T07:35:19.164Z,77.25
2023-03-22T07:37:51.058Z,77.25
2023-03-22T07:40:23.499Z,78.00
2023-03-22T07:42:55.829Z,85.75
2023-03-22T07:45:26.862Z,78.50
2023-03-22T07:47:58.079Z,76.25
2023-03-22T07:50:28.550Z,77.50
2023-03-22T07:52:59.111Z,79.50
2023-03-22T07:55:29.544Z,81.00
2023-03-22T07:57:59.805Z,77.75
2023-03-22T08:01:05.485Z,76.00
2023-03-22T08:06:49.938Z,74.50
2023-03-22T08:09:20.475Z,82.00
2023-03-22T08:12:05.654Z,88.25
2023-03-22T08:14:37.262Z,72.50
2023-03-22T08:17:07.626Z,74.50
2023-03-22T08:20:00.402Z,76.75
2023-03-22T08:28:42.312Z,66.75
2023-03-22T08:31:17.493Z,61.50
2023-03-22T08:33:48.834Z,58.25
2023-03-22T08:36:23.157Z,60.00
2023-03-22T08:38:53.834Z,62.00
2023-03-22T08:41:24.928Z,63.00
2023-03-22T08:43:56.937Z,60.75
2023-03-22T08:46:27.857Z,57.25
2023-03-22T08:48:58.361Z,53.75
2023-03-22T08:51:28.825Z,48.25
2023-03-22T08:53:59.179Z,47.00
2023-03-22T08:56:29.601Z,55.75
2023-03-22T08:59:00.507Z,58.50
2023-03-22T09:01:31.219Z,51.75
2023-03-22T09:04:02.927Z,57.75
2023-03-22T09:06:34.584Z,55.25
2023-03-22T09:09:06.016Z,51.25
2023-03-22T09:11:38.739Z,52.00
2023-03-22T09:14:10.280Z,61.25
2023-03-22T09:16:42.233Z,67.50
2023-03-22T09:19:27.107Z,66.50
2023-03-22T09:22:02.907Z,65.00
2023-03-22T09:24:33.914Z,53.25
2023-03-22T09:27:06.253Z,53.00
2023-03-22T09:29:36.595Z,52.50
2023-03-22T09:32:06.897Z,49.50
2023-03-22T09:34:37.446Z,53.00
2023-03-22T09:37:25.680Z,56.00
2023-03-22T09:39:57.176Z,56.00
2023-03-22T09:42:33.457Z,58.50
2023-03-22T09:45:09.400Z,54.25
2023-03-22T09:47:45.381Z,50.25
2023-03-22T09:50:18.952Z,53.00
2023-03-22T09:52:51.208Z,54.00
2023-03-22T09:55:39.472Z,55.25
2023-03-22T09:58:19.390Z,53.80
2023-03-22T10:00:59.199Z,49.60
2023-03-22T10:03:47.701Z,53.25
2023-03-22T10:06:23.917Z,54.40
2023-03-22T10:09:00.512Z,56.75
2023-03-22T10:11:50.421Z,57.00
2023-03-22T10:14:23.690Z,48.40
2023-03-22T10:16:57.506Z,49.40
2023-03-22T10:19:37.858Z,49.20
2023-03-22T10:22:11.730Z,48.00
2023-03-22T10:24:45.743Z,49.50
2023-03-22T10:27:18.948Z,55.25
2023-03-22T10:29:57.996Z,46.60
2023-03-22T10:32:45.214Z,43.60
2023-03-22T10:35:15.167Z,43.20
2023-03-22T10:37:48.607Z,40.40
2023-03-22T10:40:31.523Z,41.60
2023-03-22T10:43:20.896Z,43.60
2023-03-22T10:45:53.546Z,42.80
2023-03-22T10:48:27.857Z,44.80
2023-03-22T10:51:00.242Z,43.40
2023-03-22T10:53:42.638Z,42.60
2023-03-22T10:56:16.065Z,43.00
2023-03-22T10:58:49.131Z,42.80
2023-03-22T11:01:28.337Z,35.40
2023-03-22T11:04:08.144Z,41.60
2023-03-22T11:06:42.562Z,43.40
2023-03-22T11:09:18.745Z,38.80
2023-03-22T11:11:57.367Z,35.40
2023-03-22T11:14:42.895Z,37.20
2023-03-22T11:17:24.642Z,41.60
2023-03-22T11:20:09.504Z,38.40
2023-03-22T11:22:44.644Z,42.40
2023-03-22T11:25:23.747Z,39.20
2023-03-22T11:28:06.677Z,43.40
2023-03-22T11:30:38.481Z,44.60
2023-03-22T11:33:19.369Z,40.40
2023-03-22T11:36:04.531Z,42.40
2023-03-22T11:38:40.323Z,40.60
2023-03-22T11:41:25.965Z,42.00
2023-03-22T11:44:10.950Z,41.00
2023-03-22T11:46:50.775Z,44.40
2023-03-22T11:49:23.230Z,42.00
2023-03-22T11:51:55.894Z,43.00
2023-03-22T11:54:31.689Z,41.40
2023-03-22T11:57:04.929Z,45.00
2023-03-22T11:59:40.149Z,46.80
2023-03-22T12:02:25.116Z,46.80
2023-03-22T12:05:10.367Z,40.40
2023-03-22T12:07:43.246Z,45.40
2023-03-22T12:10:28.436Z,41.40
2023-03-22T12:13:02.400Z,40.00
2023-03-22T12:15:38.989Z,46.60
2023-03-22T12:18:21.330Z,42.20
2023-03-22T12:21:01.085Z,43.80
2023-03-22T12:23:35.314Z,45.60
2023-03-22T12:26:14.413Z,42.80
2023-03-22T12:28:53.700Z,35.20
2023-03-22T12:31:42.359Z,43.60
2023-03-22T12:34:21.820Z,43.20
2023-03-22T12:36:55.553Z,45.00
2023-03-22T12:39:31.527Z,47.60
2023-03-22T12:42:20.256Z,43.00
2023-03-22T12:45:04.021Z,46.00
2023-03-22T12:47:40.684Z,46.50
2023-03-22T12:50:14.447Z,45.20
2023-03-22T12:52:51.968Z,49.75
2023-03-22T12:55:32.021Z,44.60
2023-03-22T12:58:07.717Z,44.00
2023-03-22T13:00:45.849Z,40.00
2023-03-22T13:03:20.165Z,40.80
2023-03-22T13:05:53.007Z,31.00
2023-03-22T13:08:24.576Z,42.80
2023-03-22T13:11:05.934Z,45.40
2023-03-22T13:13:45.909Z,44.00
2023-03-22T13:16:20.632Z,44.50
2023-03-22T13:19:12.880Z,44.00
2023-03-22T13:21:43.442Z,43.75
2023-03-22T13:24:17.130Z,42.25
2023-03-22T13:26:53.629Z,43.50
2023-03-22T13:29:35.447Z,47.50
2023-03-22T13:32:15.396Z,40.50
2023-03-22T13:34:49.100Z,43.00
2023-03-22T13:37:38.132Z,43.25
2023-03-22T13:40:38.619Z,42.20
2023-03-22T13:49:17.385Z,45.20
2023-03-22T13:51:51.186Z,43.20
2023-03-22T13:54:27.638Z,44.60
2023-03-22T13:57:37.151Z,40.00
2023-03-22T14:00:31.424Z,38.60
2023-03-22T14:03:20.638Z,42.60
2023-03-22T14:05:56.631Z,41.60
2023-03-22T14:08:30.914Z,39.00
2023-03-22T14:14:27.698Z,41.00
2023-03-22T14:17:12.871Z,40.20
2023-03-22T14:19:45.144Z,48.50
